Decoded Metar for LFBD (BORDEAUX in FRANCE) (IATA:BOD) | Meteo·Mobile Aviation Weather
aviador You're here:

LFBD Decoded Metar

BORDEAUX in FRANCE
Report Time2019-04-20 10:00:00
UTC Time2019-04-20 10:13:49
Flight Rules vfr VFR
Wind090° at 06 kt
W.Decomp.*RWY 11: 5.7 kt HW 2 kt LCW
RWY 05: 4.5 kt HW 3.9 kt RCW
Visibility9999 m
Phenomena:N/A
Clouds:N/A
Expected CloudBase > 6,400 ft AGL from Temp-Dew spread
CeilingNone
Temp21°C (ISA +6)
Dew Point05°C (35% RH)
AAT17.7°C
QNH1023 hPa
Density Alt732 ft
Elevation200 ft
Report Wrong Elevation
Raw Report
LFBD 201000Z AUTO 09006KT 040V130 CAVOK 21/05 Q1023 NOSIG=

Extra information for LFBD:More info

Metar Taf Metar & Taf Last 4 Metars F.Rules Stats Wind Profile Meteogram Temp Stats Airport Information Weather charts Add Link Nearby VenuesMetar ALERT Operation Metar Decoded Social comments